Time;durP1;ratioP1;P1;durP2;ratioP2;P2;SDS_P1;SDS_P2;PMS_P1;PMS_P2;Temp;Humidity;BMP_temperature;BMP_pressure;BME280_temperature;BME280_humidity;BME280_pressure;Samples;Min_cycle;Max_cycle;Signal;HPM_P1;HPM_P2
2024/01/23 00:01:00;;;;;;;9.67;2.50;;;;;;;3.95;100.00;97954.22;5014040;28;20397;-78
2024/01/23 00:03:28;;;;;;;6.60;2.47;;;;;;;3.95;100.00;97949.00;5010068;28;20403;-78
2024/01/23 00:05:54;;;;;;;4.57;2.20;;;;;;;3.98;100.00;97959.09;4996771;28;20449;-78
2024/01/23 00:08:20;;;;;;;2.95;1.70;;;;;;;4.01;100.00;97956.88;4997368;28;20410;-78
2024/01/23 00:10:46;;;;;;;2.92;1.92;;;;;;;4.00;100.00;97973.59;4997363;28;20402;-78
2024/01/23 00:13:14;;;;;;;2.42;1.85;;;;;;;3.99;100.00;97969.34;4995874;28;20402;-78
2024/01/23 00:15:41;;;;;;;3.42;1.80;;;;;;;4.02;100.00;97978.63;4996664;28;20776;-78
2024/01/23 00:18:07;;;;;;;3.97;2.10;;;;;;;4.02;100.00;97958.50;4997407;28;20793;-78
2024/01/23 00:20:33;;;;;;;3.05;1.70;;;;;;;4.07;100.00;97974.41;4996031;28;20487;-79
2024/01/23 00:23:00;;;;;;;2.72;1.88;;;;;;;4.07;100.00;97977.03;4997185;28;20442;-78
2024/01/23 00:25:26;;;;;;;3.13;1.80;;;;;;;4.05;100.00;97965.97;4997954;28;20419;-78
2024/01/23 00:27:52;;;;;;;3.00;1.70;;;;;;;4.01;100.00;97963.91;4997217;28;20429;-78
2024/01/23 00:30:20;;;;;;;5.60;2.20;;;;;;;3.94;100.00;97966.50;4996743;28;20441;-78
2024/01/23 00:32:46;;;;;;;1.95;1.67;;;;;;;3.87;100.00;97963.06;4996888;28;20433;-78
2024/01/23 00:35:12;;;;;;;3.67;1.80;;;;;;;3.77;100.00;97968.63;4997413;28;20402;-79
2024/01/23 00:37:38;;;;;;;2.90;1.90;;;;;;;3.69;100.00;97967.97;5000079;28;20441;-78
2024/01/23 00:40:05;;;;;;;5.45;2.25;;;;;;;3.63;100.00;97964.34;5009448;28;20413;-79
2024/01/23 00:42:31;;;;;;;2.85;1.85;;;;;;;3.60;100.00;97972.59;5005292;28;20456;-78
2024/01/23 00:44:57;;;;;;;5.15;2.05;;;;;;;3.63;100.00;97971.38;5001349;28;20422;-78
2024/01/23 00:47:25;;;;;;;7.37;2.60;;;;;;;3.65;100.00;97969.38;5001683;28;20402;-78
2024/01/23 00:49:51;;;;;;;8.65;2.85;;;;;;;3.70;100.00;97973.03;5002295;28;20407;-78
2024/01/23 00:52:17;;;;;;;11.30;3.85;;;;;;;3.79;100.00;97961.41;5000626;28;20409;-78
2024/01/23 00:54:43;;;;;;;8.00;2.80;;;;;;;3.87;100.00;97952.59;4999680;28;20511;-78
2024/01/23 00:57:09;;;;;;;17.13;3.70;;;;;;;3.87;100.00;97958.63;4999372;28;20800;-78
2024/01/23 00:59:36;;;;;;;7.18;2.53;;;;;;;3.98;100.00;97956.47;4999371;28;20398;-78
2024/01/23 01:02:03;;;;;;;5.85;2.20;;;;;;;4.01;100.00;97977.81;5000832;28;20444;-78
2024/01/23 01:04:30;;;;;;;8.52;2.60;;;;;;;4.04;100.00;97989.75;4999412;28;20892;-78
2024/01/23 01:06:57;;;;;;;7.28;2.55;;;;;;;4.05;100.00;97986.13;5000101;28;20725;-78
2024/01/23 01:09:23;;;;;;;8.60;2.20;;;;;;;4.04;100.00;98005.44;4998551;28;20495;-78
2024/01/23 01:11:49;;;;;;;12.82;2.85;;;;;;;4.00;100.00;97997.16;4998027;28;20399;-78
2024/01/23 01:14:15;;;;;;;15.98;3.13;;;;;;;3.97;100.00;98020.34;4997862;28;20438;-77
2024/01/23 01:16:41;;;;;;;23.15;3.78;;;;;;;3.94;100.00;98013.66;4998228;28;20481;-78
2024/01/23 01:19:08;;;;;;;17.15;3.20;;;;;;;3.92;100.00;98014.84;4997863;28;20394;-78
2024/01/23 01:21:35;;;;;;;18.63;3.10;;;;;;;3.89;100.00;98013.44;4999355;28;20486;-78
2024/01/23 01:24:01;;;;;;;13.90;3.15;;;;;;;3.87;100.00;98016.25;4998650;28;20429;-78
2024/01/23 01:26:27;;;;;;;12.23;2.60;;;;;;;3.86;100.00;98011.19;4999002;28;20486;-78
2024/01/23 01:28:53;;;;;;;11.23;2.50;;;;;;;3.84;100.00;98014.00;4999189;28;20425;-78
2024/01/23 01:31:19;;;;;;;27.02;3.55;;;;;;;3.84;100.00;98013.19;4998788;28;20410;-78
2024/01/23 01:33:46;;;;;;;10.57;3.00;;;;;;;3.83;100.00;98004.53;4998493;28;20771;-78
2024/01/23 01:36:12;;;;;;;15.18;2.90;;;;;;;3.79;100.00;97998.06;4999547;28;20413;-78
2024/01/23 01:38:39;;;;;;;11.13;2.88;;;;;;;3.73;100.00;98019.78;4999071;28;20440;-79
2024/01/23 01:41:05;;;;;;;6.38;2.13;;;;;;;3.70;100.00;98025.41;4999418;28;20460;-78
2024/01/23 01:43:32;;;;;;;14.52;3.00;;;;;;;3.70;100.00;98028.00;4999830;28;20421;-79
2024/01/23 01:46:12;;;;;;;8.93;2.50;;;;;;;3.71;100.00;98040.09;4999379;28;20422;-79
2024/01/23 01:48:39;;;;;;;9.07;2.78;;;;;;;3.74;100.00;98052.00;4996688;28;20956;-78
2024/01/23 01:51:05;;;;;;;11.10;3.00;;;;;;;3.75;100.00;98043.97;4996464;28;20480;-78
2024/01/23 01:53:32;;;;;;;17.15;2.75;;;;;;;3.75;100.00;98035.31;4996463;28;20478;-78
2024/01/23 01:56:00;;;;;;;18.77;3.83;;;;;;;3.68;100.00;98035.28;4997416;28;20417;-78
2024/01/23 01:58:30;;;;;;;12.57;2.90;;;;;;;3.64;100.00;98036.63;4996690;28;20403;-78
2024/01/23 02:00:57;;;;;;;21.98;3.85;;;;;;;3.61;100.00;98037.00;4996830;28;20422;-78
2024/01/23 02:03:24;;;;;;;10.85;2.67;;;;;;;3.58;100.00;98036.59;4997382;28;20426;-80
2024/01/23 02:05:51;;;;;;;14.95;2.95;;;;;;;3.49;100.00;98039.34;4999258;28;20450;-80
2024/01/23 02:08:17;;;;;;;18.70;3.53;;;;;;;3.44;100.00;98049.59;5000445;28;20438;-80
2024/01/23 02:10:43;;;;;;;13.80;2.80;;;;;;;3.40;100.00;98034.44;4999454;28;20449;-80
2024/01/23 02:13:11;;;;;;;25.02;3.40;;;;;;;3.38;100.00;98046.91;4998009;28;20411;-80
2024/01/23 02:15:37;;;;;;;14.80;3.47;;;;;;;3.40;100.00;98037.84;4998206;28;20948;-78
2024/01/23 02:18:04;;;;;;;14.93;3.22;;;;;;;3.44;100.00;98046.16;4997292;28;20469;-78
2024/01/23 02:20:30;;;;;;;6.70;2.28;;;;;;;3.47;100.00;98051.00;4997345;28;20406;-80
2024/01/23 02:22:56;;;;;;;5.55;2.13;;;;;;;3.49;100.00;98052.44;4997752;28;20441;-78
2024/01/23 02:25:24;;;;;;;4.72;2.10;;;;;;;3.50;100.00;98067.13;4997331;28;20445;-77
2024/01/23 02:27:50;;;;;;;7.27;2.43;;;;;;;3.51;100.00;98067.97;4997247;28;20493;-79
2024/01/23 02:30:16;;;;;;;7.30;2.45;;;;;;;3.48;100.00;98066.50;4997667;28;20472;-77
2024/01/23 02:32:43;;;;;;;18.30;3.97;;;;;;;3.44;100.00;98061.84;4997414;28;20413;-79
2024/01/23 02:35:10;;;;;;;32.45;4.72;;;;;;;3.39;100.00;98061.59;4996785;28;20415;-78
2024/01/23 02:37:37;;;;;;;12.18;3.20;;;;;;;3.35;100.00;98057.75;4997202;28;20768;-78
2024/01/23 02:40:03;;;;;;;15.57;3.87;;;;;;;3.32;100.00;98058.13;4997210;28;20533;-78
2024/01/23 02:42:31;;;;;;;17.77;3.60;;;;;;;3.29;100.00;98056.69;4996642;28;20764;-78
2024/01/23 02:44:57;;;;;;;15.33;3.70;;;;;;;3.30;100.00;98050.47;4996961;28;20431;-77
2024/01/23 02:47:23;;;;;;;22.65;4.30;;;;;;;3.29;100.00;98054.09;4997913;28;20402;-78
2024/01/23 02:49:49;;;;;;;22.77;4.35;;;;;;;3.26;100.00;98053.63;4997586;28;20936;-80
2024/01/23 02:52:15;;;;;;;18.27;3.72;;;;;;;3.27;100.00;98047.41;4997894;28;20753;-80
2024/01/23 02:54:42;;;;;;;10.68;3.33;;;;;;;3.29;100.00;98058.50;4998556;28;20394;-80
2024/01/23 02:57:08;;;;;;;12.75;2.80;;;;;;;3.31;100.00;98061.72;4999045;28;20744;-80
2024/01/23 02:59:36;;;;;;;9.70;2.87;;;;;;;3.29;100.00;98080.25;4999435;28;20469;-80
2024/01/23 03:02:02;;;;;;;9.52;3.30;;;;;;;3.30;100.00;98083.69;4998994;28;20419;-80
2024/01/23 03:04:28;;;;;;;7.00;2.35;;;;;;;3.31;100.00;98072.19;4999103;28;20441;-80
2024/01/23 03:06:54;;;;;;;11.13;3.00;;;;;;;3.32;100.00;98086.91;4998976;28;20891;-80
2024/01/23 03:09:20;;;;;;;10.20;2.45;;;;;;;3.33;100.00;98089.34;4998724;28;20768;-80
2024/01/23 03:11:46;;;;;;;6.38;2.30;;;;;;;3.35;100.00;98089.97;4999179;28;20417;-80
2024/01/23 03:14:13;;;;;;;9.32;2.90;;;;;;;3.36;100.00;98091.59;4997277;28;20411;-80
2024/01/23 03:16:41;;;;;;;29.42;4.55;;;;;;;3.36;100.00;98082.94;4997711;28;20398;-79
2024/01/23 03:19:07;;;;;;;11.85;3.25;;;;;;;3.41;100.00;98086.59;4998101;28;20417;-79
2024/01/23 03:21:33;;;;;;;17.52;4.15;;;;;;;3.42;100.00;98082.16;4998454;28;20445;-80
2024/01/23 03:23:59;;;;;;;29.83;4.85;;;;;;;3.45;100.00;98090.47;4998006;28;20434;-80
2024/01/23 03:26:25;;;;;;;10.43;2.80;;;;;;;3.52;100.00;98081.84;4998109;28;20397;-79
2024/01/23 03:28:52;;;;;;;19.52;3.90;;;;;;;3.55;100.00;98091.94;4998785;28;20764;-80
2024/01/23 03:31:18;;;;;;;13.80;3.45;;;;;;;3.58;100.00;98089.75;4998484;28;20448;-79
2024/01/23 03:33:46;;;;;;;15.75;3.50;;;;;;;3.60;100.00;98098.25;4998356;28;20402;-79
2024/01/23 03:36:13;;;;;;;21.70;4.55;;;;;;;3.62;100.00;98103.25;4998851;28;20464;-80
2024/01/23 03:38:39;;;;;;;37.28;4.53;;;;;;;3.63;100.00;98097.03;4998720;28;20416;-79
2024/01/23 03:41:07;;;;;;;32.90;5.35;;;;;;;3.65;100.00;98103.69;5001611;28;20408;-79
2024/01/23 03:43:33;;;;;;;34.40;5.28;;;;;;;3.71;100.00;98099.50;5003634;28;20410;-79
2024/01/23 03:45:59;;;;;;;27.45;4.38;;;;;;;3.78;100.00;98110.84;5011539;28;20414;-79
2024/01/23 03:48:25;;;;;;;25.85;4.00;;;;;;;3.81;100.00;98119.16;5009891;28;20433;-79
2024/01/23 03:50:52;;;;;;;21.38;3.83;;;;;;;3.85;100.00;98125.59;4998041;28;20446;-80
2024/01/23 03:53:19;;;;;;;27.25;4.30;;;;;;;3.89;100.00;98119.00;4997297;28;20461;-79
2024/01/23 03:55:45;;;;;;;25.27;4.03;;;;;;;3.92;100.00;98123.03;4996947;28;20468;-80
2024/01/23 03:58:11;;;;;;;28.75;5.40;;;;;;;3.92;100.00;98123.03;4998354;28;20501;-79
2024/01/23 04:00:37;;;;;;;16.92;3.47;;;;;;;3.96;100.00;98121.66;4996562;28;20410;-79
2024/01/23 04:03:05;;;;;;;15.43;3.42;;;;;;;3.98;100.00;98124.09;4997884;28;20780;-79
2024/01/23 04:05:31;;;;;;;34.77;4.90;;;;;;;3.94;100.00;98139.38;4999003;28;20518;-79
2024/01/23 04:07:58;;;;;;;20.50;3.40;;;;;;;3.98;100.00;98117.06;4998109;28;20403;-80
2024/01/23 04:10:24;;;;;;;34.42;5.38;;;;;;;4.02;100.00;98128.75;5002064;28;20478;-79
2024/01/23 04:12:50;;;;;;;33.22;5.45;;;;;;;4.07;100.00;98133.41;4996196;28;20462;-79
2024/01/23 04:15:17;;;;;;;28.83;4.50;;;;;;;4.06;100.00;98129.97;4997721;28;20549;-79
2024/01/23 04:17:43;;;;;;;22.87;4.10;;;;;;;4.11;100.00;98134.66;4997839;28;20491;-79
2024/01/23 04:20:10;;;;;;;19.00;3.20;;;;;;;4.15;100.00;98143.75;4996961;28;20482;-79
2024/01/23 04:22:36;;;;;;;36.40;5.10;;;;;;;4.09;100.00;98144.50;4996862;28;20413;-80
2024/01/23 04:25:04;;;;;;;28.48;4.28;;;;;;;4.15;100.00;98151.59;4998608;28;20422;-79
2024/01/23 04:27:30;;;;;;;35.53;5.30;;;;;;;4.09;100.00;98145.34;4998999;28;20461;-79
2024/01/23 04:29:57;;;;;;;31.10;4.82;;;;;;;4.04;100.00;98132.00;4998501;28;20429;-80
2024/01/23 04:32:23;;;;;;;23.42;4.00;;;;;;;4.04;100.00;98129.38;4998476;28;20569;-79
2024/01/23 04:34:49;;;;;;;23.98;4.40;;;;;;;4.00;100.00;98138.59;4998538;28;20473;-79
2024/01/23 04:37:15;;;;;;;23.58;4.00;;;;;;;3.99;100.00;98144.03;4997810;28;20440;-79
2024/01/23 04:39:41;;;;;;;21.23;3.50;;;;;;;3.98;100.00;98158.16;4998051;28;20411;-80
2024/01/23 04:42:09;;;;;;;19.27;3.85;;;;;;;3.96;100.00;98152.28;4998956;28;20879;-79
2024/01/23 04:44:35;;;;;;;18.02;3.95;;;;;;;4.00;100.00;98153.50;4999429;28;20418;-79
2024/01/23 04:47:01;;;;;;;32.65;4.95;;;;;;;3.97;100.00;98172.25;4999439;28;20450;-79
2024/01/23 04:49:27;;;;;;;28.95;4.90;;;;;;;3.94;100.00;98165.56;4999792;28;20410;-80
2024/01/23 04:51:53;;;;;;;33.47;4.85;;;;;;;3.92;100.00;98179.84;4998774;28;20401;-80
2024/01/23 04:54:19;;;;;;;24.58;4.32;;;;;;;3.93;100.00;98165.75;4997510;28;20421;-79
2024/01/23 04:56:45;;;;;;;27.20;4.20;;;;;;;3.90;100.00;98174.81;4999091;28;20875;-79
2024/01/23 04:59:13;;;;;;;22.15;3.70;;;;;;;3.89;100.00;98175.81;4998964;28;20399;-79
2024/01/23 05:01:40;;;;;;;22.98;3.90;;;;;;;3.86;100.00;98170.94;4998488;28;20410;-79
2024/01/23 05:04:06;;;;;;;22.67;3.60;;;;;;;3.83;100.00;98155.63;4998419;28;20406;-80
2024/01/23 05:06:32;;;;;;;15.80;3.10;;;;;;;3.82;100.00;98170.53;4998286;28;20515;-80
2024/01/23 05:08:58;;;;;;;14.93;3.03;;;;;;;3.78;100.00;98173.69;4997694;28;20485;-79
2024/01/23 05:11:24;;;;;;;13.98;3.10;;;;;;;3.75;100.00;98187.97;4999335;28;20437;-79
2024/01/23 05:13:50;;;;;;;23.40;3.43;;;;;;;3.71;100.00;98202.44;4997741;28;20402;-79
2024/01/23 05:16:18;;;;;;;14.35;2.90;;;;;;;3.71;100.00;98214.72;4998329;28;20411;-80
2024/01/23 05:18:44;;;;;;;20.33;3.42;;;;;;;3.69;100.00;98216.69;4997045;28;20994;-80
2024/01/23 05:21:10;;;;;;;20.13;3.55;;;;;;;3.66;100.00;98230.19;4996636;28;20465;-80
2024/01/23 05:23:37;;;;;;;24.17;4.05;;;;;;;3.66;100.00;98243.28;4996843;28;20493;-81
2024/01/23 05:26:03;;;;;;;20.27;3.60;;;;;;;3.64;100.00;98253.09;4995693;28;20428;-80
2024/01/23 05:28:30;;;;;;;12.15;3.13;;;;;;;3.63;100.00;98262.75;5004780;28;20456;-81
2024/01/23 05:30:56;;;;;;;16.85;3.53;;;;;;;3.61;100.00;98293.53;4992127;28;20404;-83
2024/01/23 05:33:23;;;;;;;31.60;4.40;;;;;;;3.59;100.00;98255.47;4982174;28;20419;-80
2024/01/23 05:35:49;;;;;;;23.65;3.88;;;;;;;3.57;100.00;98257.47;4979404;28;20408;-79
2024/01/23 05:38:15;;;;;;;19.90;3.83;;;;;;;3.56;100.00;98266.31;4981450;28;20491;-80
2024/01/23 05:40:42;;;;;;;16.13;2.97;;;;;;;3.53;100.00;98267.50;4997097;28;20410;-79
2024/01/23 05:43:08;;;;;;;16.25;3.28;;;;;;;3.49;100.00;98272.28;4998559;28;20405;-78
2024/01/23 05:45:34;;;;;;;29.13;3.83;;;;;;;3.47;100.00;98291.78;4999089;28;20922;-79
2024/01/23 05:48:00;;;;;;;15.77;3.60;;;;;;;3.44;100.00;98297.41;4997553;28;20413;-79
2024/01/23 05:50:28;;;;;;;9.85;3.10;;;;;;;3.43;100.00;98296.59;4996294;28;20402;-78
2024/01/23 05:52:54;;;;;;;16.77;3.20;;;;;;;3.41;100.00;98309.03;4998489;28;20972;-78
2024/01/23 05:55:21;;;;;;;21.83;3.33;;;;;;;3.40;100.00;98286.47;4995680;28;20418;-78
2024/01/23 05:57:48;;;;;;;12.50;2.83;;;;;;;3.38;100.00;98298.13;4995200;28;20597;-78
2024/01/23 06:00:15;;;;;;;14.35;2.67;;;;;;;3.37;100.00;98306.97;4988112;28;20412;-78
2024/01/23 06:02:41;;;;;;;10.18;2.40;;;;;;;3.37;100.00;98309.59;4986158;28;20412;-78
2024/01/23 06:05:08;;;;;;;12.73;2.80;;;;;;;3.35;100.00;98327.28;4997909;28;20430;-80
2024/01/23 06:07:40;;;;;;;13.38;3.28;;;;;;;3.36;100.00;98339.38;4999506;28;20406;-80
2024/01/23 06:10:07;;;;;;;9.20;2.57;;;;;;;3.35;100.00;98350.81;5000393;28;20492;-80
2024/01/23 06:12:34;;;;;;;12.98;2.90;;;;;;;3.34;100.00;98355.25;5000870;28;20792;-80
2024/01/23 06:15:00;;;;;;;9.27;2.67;;;;;;;3.32;100.00;98345.94;4999500;28;20425;-81
2024/01/23 06:17:26;;;;;;;12.30;2.80;;;;;;;3.30;100.00;98345.31;4999937;28;20411;-80
2024/01/23 06:19:52;;;;;;;13.95;2.65;;;;;;;3.24;100.00;98349.47;4999174;28;20409;-80
2024/01/23 06:22:18;;;;;;;14.47;2.90;;;;;;;3.25;100.00;98366.78;4999154;28;20445;-80
2024/01/23 06:25:01;;;;;;;12.32;2.90;;;;;;;3.23;100.00;98375.81;4996698;28;20517;-78
2024/01/23 06:27:27;;;;;;;14.35;2.95;;;;;;;3.20;100.00;98371.75;5001732;28;20394;-77
2024/01/23 06:29:53;;;;;;;5.63;2.40;;;;;;;3.21;100.00;98385.66;4999142;28;20402;-80
2024/01/23 06:32:19;;;;;;;8.35;2.40;;;;;;;3.24;100.00;98395.75;4998761;28;20607;-81
2024/01/23 06:34:46;;;;;;;4.30;1.80;;;;;;;3.25;100.00;98399.97;4999260;28;20911;-81
2024/01/23 06:37:12;;;;;;;10.48;2.17;;;;;;;3.24;100.00;98407.03;4998451;28;20403;-80
2024/01/23 06:39:39;;;;;;;9.13;2.15;;;;;;;3.25;100.00;98420.91;4999337;28;20536;-80
2024/01/23 06:42:07;;;;;;;11.98;2.55;;;;;;;3.26;100.00;98427.78;4998978;28;20742;-80
2024/01/23 06:44:34;;;;;;;7.40;2.60;;;;;;;3.26;100.00;98435.63;5000631;28;20506;-80
2024/01/23 06:47:00;;;;;;;5.75;2.45;;;;;;;3.26;100.00;98443.47;5003010;28;20448;-80
2024/01/23 06:49:27;;;;;;;9.82;2.80;;;;;;;3.22;100.00;98453.50;5002138;28;20467;-78
2024/01/23 06:51:53;;;;;;;12.07;2.67;;;;;;;3.20;100.00;98454.66;5002240;28;20452;-80
2024/01/23 06:54:19;;;;;;;8.90;2.38;;;;;;;3.15;100.00;98464.84;4999310;28;20410;-80
2024/01/23 06:56:46;;;;;;;4.38;1.95;;;;;;;3.10;100.00;98478.44;4998670;28;20826;-80
2024/01/23 06:59:15;;;;;;;9.48;2.25;;;;;;;3.01;100.00;98492.56;4998527;28;20406;-79
2024/01/23 07:01:41;;;;;;;13.18;2.97;;;;;;;2.91;100.00;98489.41;4995675;28;20460;-79
2024/01/23 07:04:08;;;;;;;5.30;1.90;;;;;;;2.81;100.00;98504.50;4991185;28;20816;-79
2024/01/23 07:06:34;;;;;;;5.75;2.20;;;;;;;2.67;100.00;98499.03;4999224;28;20437;-79
2024/01/23 07:09:00;;;;;;;6.80;2.40;;;;;;;2.58;100.00;98509.72;4999276;28;20894;-79
2024/01/23 07:11:27;;;;;;;10.23;2.85;;;;;;;2.49;100.00;98514.16;4999985;28;20398;-80
2024/01/23 07:13:54;;;;;;;4.60;2.22;;;;;;;2.42;100.00;98522.88;5000073;28;20403;-79
2024/01/23 07:16:21;;;;;;;3.35;1.90;;;;;;;2.35;100.00;98525.34;5000021;28;20414;-79
2024/01/23 07:18:48;;;;;;;2.72;1.83;;;;;;;2.29;100.00;98534.69;5005879;28;20402;-79
2024/01/23 07:21:14;;;;;;;3.97;2.28;;;;;;;2.25;100.00;98529.97;5007147;28;20414;-79
2024/01/23 07:23:40;;;;;;;7.88;2.35;;;;;;;2.24;100.00;98529.16;5003677;28;20403;-80
2024/01/23 07:26:06;;;;;;;8.67;2.53;;;;;;;2.22;100.00;98531.13;4999627;28;20515;-79
2024/01/23 07:28:33;;;;;;;16.08;3.70;;;;;;;2.19;100.00;98531.47;5000098;28;20406;-79
2024/01/23 07:30:59;;;;;;;7.78;2.53;;;;;;;2.21;100.00;98536.50;4999970;28;20405;-80
2024/01/23 07:33:28;;;;;;;9.93;2.67;;;;;;;2.26;100.00;98529.78;5000430;28;20413;-79
2024/01/23 07:35:54;;;;;;;12.85;3.58;;;;;;;2.29;100.00;98534.69;4999842;28;20498;-79
2024/01/23 07:38:20;;;;;;;20.17;4.83;;;;;;;2.30;100.00;98532.91;5000149;28;20784;-80
2024/01/23 07:40:46;;;;;;;8.60;2.80;;;;;;;2.33;100.00;98543.00;4999953;28;20394;-80
2024/01/23 07:43:12;;;;;;;12.90;3.33;;;;;;;2.34;100.00;98539.38;5000474;28;20392;-79
2024/01/23 07:45:39;;;;;;;16.50;3.88;;;;;;;2.30;100.00;98540.72;5000798;28;20426;-79
2024/01/23 07:48:05;;;;;;;9.70;2.80;;;;;;;2.28;100.00;98553.13;5012873;28;20425;-80
2024/01/23 07:50:33;;;;;;;13.57;3.70;;;;;;;2.24;100.00;98560.50;5014579;28;20412;-79
2024/01/23 07:52:59;;;;;;;11.57;3.27;;;;;;;2.27;100.00;98565.38;5015352;28;20497;-79
2024/01/23 07:55:25;;;;;;;15.63;3.58;;;;;;;2.31;100.00;98568.50;5006079;28;20417;-80
2024/01/23 07:57:51;;;;;;;8.68;3.10;;;;;;;2.36;100.00;98583.63;4998351;28;20410;-79
2024/01/23 08:00:18;;;;;;;9.82;3.58;;;;;;;2.46;100.00;98584.25;4998881;28;20402;-79
2024/01/23 08:02:45;;;;;;;24.15;5.18;;;;;;;2.53;100.00;98585.22;5000435;28;20413;-79
2024/01/23 08:05:11;;;;;;;27.33;5.28;;;;;;;2.62;100.00;98587.63;4999394;28;20434;-79
2024/01/23 08:07:41;;;;;;;25.90;5.80;;;;;;;2.68;100.00;98580.91;5001303;28;20420;-79
2024/01/23 08:10:12;;;;;;;21.17;4.80;;;;;;;2.80;100.00;98589.16;5004764;28;20426;-80
2024/01/23 08:12:38;;;;;;;11.48;3.70;;;;;;;2.82;100.00;98584.56;5004441;28;20454;-79
2024/01/23 08:15:06;;;;;;;8.70;2.80;;;;;;;2.78;100.00;98601.59;5003512;28;20422;-80
2024/01/23 08:17:32;;;;;;;5.72;2.70;;;;;;;2.69;100.00;98600.81;5004093;28;20482;-79
2024/01/23 08:19:58;;;;;;;12.15;3.20;;;;;;;2.61;100.00;98601.69;5003738;28;20424;-79
2024/01/23 08:22:24;;;;;;;10.93;3.25;;;;;;;2.55;100.00;98602.38;5000601;28;20421;-78
2024/01/23 08:24:52;;;;;;;13.43;3.75;;;;;;;2.54;100.00;98608.56;4999040;28;20843;-79
2024/01/23 08:27:18;;;;;;;16.47;4.10;;;;;;;2.54;100.00;98608.56;4986574;28;20495;-79
2024/01/23 08:29:45;;;;;;;6.13;3.13;;;;;;;2.60;100.00;98609.69;4988078;28;20403;-78
2024/01/23 08:32:11;;;;;;;11.13;3.20;;;;;;;2.65;100.00;98608.19;4984770;28;20491;-78
2024/01/23 08:34:41;;;;;;;21.85;4.50;;;;;;;2.67;100.00;98603.59;4983426;28;21529;-79
2024/01/23 08:37:07;;;;;;;19.58;3.97;;;;;;;2.73;100.00;98613.38;4998817;28;20410;-79
2024/01/23 08:39:34;;;;;;;14.63;4.22;;;;;;;2.84;100.00;98611.38;5002363;28;20407;-78
2024/01/23 08:42:01;;;;;;;15.65;4.03;;;;;;;2.95;100.00;98613.56;4990765;28;20412;-76
2024/01/23 08:44:28;;;;;;;12.60;3.30;;;;;;;3.06;100.00;98613.19;4984974;28;20971;-76
2024/01/23 08:46:54;;;;;;;7.75;2.88;;;;;;;3.11;100.00;98619.53;4983676;28;20413;-77
2024/01/23 08:49:20;;;;;;;10.05;2.90;;;;;;;3.15;100.00;98624.44;4985803;28;20402;-78
2024/01/23 08:51:47;;;;;;;16.95;3.85;;;;;;;3.17;100.00;98623.25;4982896;28;20751;-78
2024/01/23 08:54:18;;;;;;;11.20;3.30;;;;;;;3.27;100.00;98623.84;4984735;28;20396;-78
2024/01/23 08:56:45;;;;;;;16.85;3.42;;;;;;;3.35;100.00;98626.41;4982799;28;20455;-77
2024/01/23 08:59:13;;;;;;;10.60;2.65;;;;;;;3.41;100.00;98625.69;4981259;28;20408;-78
2024/01/23 09:01:39;;;;;;;10.95;2.90;;;;;;;3.41;100.00;98628.31;4983997;28;20461;-77
2024/01/23 09:04:06;;;;;;;6.03;2.42;;;;;;;3.39;100.00;98630.28;4995399;28;20410;-77
2024/01/23 09:06:32;;;;;;;11.70;2.97;;;;;;;3.39;100.00;98638.13;4989905;28;20429;-77
2024/01/23 09:08:59;;;;;;;17.38;3.67;;;;;;;3.40;100.00;98638.97;5007060;28;20404;-77
2024/01/23 09:11:25;;;;;;;8.77;2.47;;;;;;;3.47;100.00;98647.75;5000534;28;20497;-80
2024/01/23 09:13:51;;;;;;;5.60;2.03;;;;;;;3.56;100.00;98651.13;5009459;28;20450;-79
2024/01/23 09:16:19;;;;;;;6.65;2.15;;;;;;;3.64;100.00;98656.28;5008387;28;20414;-79
2024/01/23 09:18:48;;;;;;;12.10;2.75;;;;;;;3.78;100.00;98655.53;5008914;28;20448;-79
2024/01/23 09:21:14;;;;;;;7.63;2.55;;;;;;;3.91;100.00;98671.44;5008614;28;20559;-79
2024/01/23 09:23:40;;;;;;;6.22;2.38;;;;;;;4.00;100.00;98661.72;5008638;28;20441;-80
2024/01/23 09:26:07;;;;;;;4.28;1.92;;;;;;;4.13;100.00;98664.56;5012297;28;20426;-80
2024/01/23 09:28:33;;;;;;;5.13;1.98;;;;;;;4.21;100.00;98669.72;5010457;28;20815;-80
2024/01/23 09:31:00;;;;;;;7.70;2.20;;;;;;;4.21;100.00;98680.19;5007469;28;20882;-80
2024/01/23 09:33:27;;;;;;;5.90;2.20;;;;;;;4.29;100.00;98687.97;5003662;28;20506;-80
2024/01/23 09:35:54;;;;;;;6.90;2.17;;;;;;;4.35;100.00;98700.38;5007919;28;20415;-80
2024/01/23 09:38:21;;;;;;;6.93;2.20;;;;;;;4.29;100.00;98701.88;4989133;28;20404;-80
2024/01/23 09:40:50;;;;;;;10.63;2.20;;;;;;;4.26;100.00;98699.63;4989365;28;20407;-81
2024/01/23 09:43:20;;;;;;;6.57;1.92;;;;;;;4.27;100.00;98703.88;4994516;28;20421;-80
2024/01/23 09:45:47;;;;;;;8.77;2.15;;;;;;;4.34;100.00;98711.84;4989804;28;20426;-79
2024/01/23 09:48:14;;;;;;;5.72;1.80;;;;;;;4.43;100.00;98718.66;4991134;28;20771;-79
2024/01/23 09:50:44;;;;;;;4.25;1.77;;;;;;;4.86;100.00;98713.59;4991428;28;20403;-79
2024/01/23 09:53:11;;;;;;;5.38;1.65;;;;;;;5.44;100.00;98715.28;4990669;28;20400;-81
2024/01/23 09:55:37;;;;;;;2.55;1.40;;;;;;;6.13;100.00;98715.59;4990407;28;20464;-80
2024/01/23 09:58:04;;;;;;;1.83;1.20;;;;;;;6.53;100.00;98704.34;4986552;28;20968;-81
2024/01/23 10:00:30;;;;;;;1.88;1.30;;;;;;;6.69;100.00;98711.09;4984870;28;20399;-78
2024/01/23 10:02:56;;;;;;;2.22;1.35;;;;;;;6.78;100.00;98714.41;4990748;28;20399;-81
2024/01/23 10:05:23;;;;;;;3.45;1.30;;;;;;;6.77;100.00;98713.59;4992214;28;20426;-80
2024/01/23 10:07:51;;;;;;;4.05;1.40;;;;;;;6.51;100.00;98716.06;4994108;28;20411;-80
2024/01/23 10:10:18;;;;;;;5.07;1.65;;;;;;;6.30;100.00;98713.50;4992499;28;20423;-79
2024/01/23 10:12:46;;;;;;;7.85;1.92;;;;;;;6.02;100.00;98711.63;4990324;28;20835;-80
2024/01/23 10:15:16;;;;;;;3.63;1.67;;;;;;;6.17;100.00;98709.75;4991629;28;20434;-79
2024/01/23 10:17:43;;;;;;;6.00;1.83;;;;;;;6.24;100.00;98709.00;4989285;28;20511;-80
2024/01/23 10:20:09;;;;;;;4.00;1.90;;;;;;;6.27;100.00;98712.06;4991764;28;20473;-79
2024/01/23 10:22:36;;;;;;;3.03;1.50;;;;;;;6.38;100.00;98724.69;4989044;28;20815;-79
2024/01/23 10:25:06;;;;;;;2.85;1.15;;;;;;;7.07;100.00;98722.03;4988876;28;20426;-80
2024/01/23 10:27:32;;;;;;;3.45;1.20;;;;;;;7.77;100.00;98724.31;4989853;28;20472;-79
2024/01/23 10:29:58;;;;;;;4.38;1.70;;;;;;;8.08;100.00;98720.28;4988574;28;20440;-80
2024/01/23 10:32:25;;;;;;;5.05;1.60;;;;;;;8.26;100.00;98725.78;4988968;28;20460;-80
2024/01/23 10:34:53;;;;;;;7.20;2.00;;;;;;;8.73;100.00;98721.28;4992869;28;20432;-80
2024/01/23 10:37:21;;;;;;;8.63;2.38;;;;;;;8.91;100.00;98726.72;5006419;28;20879;-79
2024/01/23 10:39:48;;;;;;;4.32;1.48;;;;;;;8.72;100.00;98723.09;5007517;28;20399;-81
2024/01/23 10:42:15;;;;;;;9.48;2.65;;;;;;;7.97;100.00;98713.00;4999401;28;20429;-80
2024/01/23 10:44:44;;;;;;;5.53;1.90;;;;;;;7.54;100.00;98705.41;4998753;28;20410;-81
2024/01/23 10:47:12;;;;;;;11.60;2.42;;;;;;;6.92;100.00;98703.75;4999808;28;20477;-81
2024/01/23 10:49:39;;;;;;;6.85;1.90;;;;;;;6.66;100.00;98711.50;4999349;28;20398;-81
2024/01/23 10:52:09;;;;;;;4.85;1.90;;;;;;;6.49;100.00;98721.50;4999799;28;20414;-80
2024/01/23 10:54:41;;;;;;;5.10;2.20;;;;;;;6.42;100.00;98719.84;4999543;28;20398;-80
2024/01/23 10:57:12;;;;;;;6.90;2.03;;;;;;;6.27;100.00;98730.47;4999935;28;20402;-81
2024/01/23 10:59:39;;;;;;;12.18;2.78;;;;;;;6.04;100.00;98727.22;5000242;28;20822;-79
2024/01/23 11:02:13;;;;;;;10.52;2.90;;;;;;;6.19;100.00;98730.59;4999660;28;20426;-81
2024/01/23 11:04:39;;;;;;;12.50;2.75;;;;;;;6.40;100.00;98722.66;5000064;28;20426;-80
2024/01/23 11:07:15;;;;;;;14.02;2.58;;;;;;;6.83;100.00;98718.09;4999913;28;20434;-81
2024/01/23 11:09:49;;;;;;;10.13;2.57;;;;;;;7.54;100.00;98712.50;4999900;28;20752;-80
2024/01/23 11:12:25;;;;;;;9.30;2.38;;;;;;;8.46;100.00;98707.31;4985160;28;20932;-79
2024/01/23 11:14:59;;;;;;;8.15;2.22;;;;;;;9.48;100.00;98701.28;4981965;28;20432;-81
2024/01/23 11:17:31;;;;;;;7.20;1.92;;;;;;;10.40;100.00;98693.53;4981815;28;20845;-79
2024/01/23 11:20:07;;;;;;;8.05;2.15;;;;;;;10.80;100.00;98661.38;4981252;28;20432;-79
2024/01/23 11:22:33;;;;;;;7.75;1.90;;;;;;;10.58;100.00;98665.50;4981870;28;20444;-80
2024/01/23 11:24:59;;;;;;;5.05;1.73;;;;;;;10.27;100.00;98666.38;4983080;28;20510;-80
2024/01/23 11:27:28;;;;;;;13.47;2.53;;;;;;;9.69;100.00;98672.72;4999244;28;20391;-80